Time;durP1;ratioP1;P1;durP2;ratioP2;P2;SDS_P1;SDS_P2;PMS_P1;PMS_P2;Temp;Humidity;BMP_temperature;BMP_pressure;BME280_temperature;BME280_humidity;BME280_pressure;Samples;Min_cycle;Max_cycle;Signal;HPM_P1;HPM_P2
2021/06/21 00:00:28;;;;;;;3.43;3.13;;;19.20;99.90;;;;;;5055664;28;20532;-85
2021/06/21 00:02:55;;;;;;;3.70;3.40;;;19.20;99.90;;;;;;5052548;28;20514;-83
2021/06/21 00:05:21;;;;;;;3.47;3.27;;;19.30;99.90;;;;;;5033567;28;20457;-84
2021/06/21 00:07:49;;;;;;;5.33;4.43;;;19.30;99.90;;;;;;5051303;28;20461;-84
2021/06/21 00:10:18;;;;;;;3.90;3.60;;;19.20;99.90;;;;;;5051956;28;20480;-84
2021/06/21 00:12:48;;;;;;;3.63;3.33;;;19.20;99.90;;;;;;5052440;28;20445;-88
2021/06/21 00:15:18;;;;;;;4.10;3.80;;;19.20;99.90;;;;;;5034972;28;20830;-84
2021/06/21 00:17:45;;;;;;;6.73;3.80;;;19.20;99.90;;;;;;5038258;28;20454;-83
2021/06/21 00:20:14;;;;;;;4.33;4.03;;;19.20;99.90;;;;;;5052604;28;20819;-84
2021/06/21 00:22:42;;;;;;;3.60;3.30;;;19.10;99.90;;;;;;5054027;28;20468;-83
2021/06/21 00:25:11;;;;;;;3.83;3.53;;;19.20;99.90;;;;;;5032274;28;20485;-83
2021/06/21 00:27:39;;;;;;;4.03;3.73;;;19.20;99.90;;;;;;5050461;28;20455;-85
2021/06/21 00:30:10;;;;;;;4.40;4.10;;;19.10;99.90;;;;;;5035172;28;20468;-86
2021/06/21 00:32:37;;;;;;;3.80;3.50;;;19.10;99.90;;;;;;5051371;28;20815;-84
2021/06/21 00:35:07;;;;;;;3.90;3.60;;;19.10;99.90;;;;;;5051501;28;20480;-84
2021/06/21 00:37:35;;;;;;;4.40;4.00;;;19.10;99.90;;;;;;5051892;28;20465;-84
2021/06/21 00:40:02;;;;;;;4.73;4.33;;;19.10;99.90;;;;;;5034533;28;20444;-84
2021/06/21 00:42:29;;;;;;;5.90;4.13;;;19.10;99.90;;;;;;5049726;28;20452;-83
2021/06/21 00:44:56;;;;;;;4.80;4.07;;;19.10;99.90;;;;;;5052190;28;20499;-87
2021/06/21 00:47:24;;;;;;;4.30;3.90;;;19.10;99.90;;;;;;5052210;28;20433;-83
2021/06/21 00:49:51;;;;;;;4.03;3.73;;;19.10;99.90;;;;;;5050090;28;20516;-84
2021/06/21 00:52:21;;;;;;;4.60;4.30;;;19.10;99.90;;;;;;5045708;28;20477;-86
2021/06/21 00:54:59;;;;;;;4.20;3.80;;;19.10;99.90;;;;;;5046577;28;20485;-86
2021/06/21 00:57:26;;;;;;;4.13;3.83;;;19.10;99.90;;;;;;5051209;28;20477;-82
2021/06/21 00:59:54;;;;;;;4.67;4.27;;;19.10;99.90;;;;;;5045577;28;20458;-86
2021/06/21 01:02:27;;;;;;;4.87;4.40;;;19.10;99.90;;;;;;5032753;28;20446;-86
2021/06/21 01:04:54;;;;;;;5.07;4.67;;;19.10;99.90;;;;;;5014633;28;20942;-83
2021/06/21 01:07:22;;;;;;;5.33;4.37;;;19.10;99.90;;;;;;5052183;28;20476;-88
2021/06/21 01:09:50;;;;;;;4.47;4.07;;;19.10;99.90;;;;;;5049560;28;20482;-84
2021/06/21 01:12:35;;;;;;;7.13;3.97;;;19.10;99.90;;;;;;5032776;28;20851;-84
2021/06/21 01:15:06;;;;;;;4.93;4.53;;;19.10;99.90;;;;;;5052149;28;20461;-84
2021/06/21 01:17:40;;;;;;;5.40;4.90;;;19.00;99.90;;;;;;5050088;28;20453;-83
2021/06/21 01:20:29;;;;;;;4.60;4.20;;;19.00;99.90;;;;;;5051583;28;20464;-84
2021/06/21 01:23:13;;;;;;;6.00;4.90;;;19.10;99.90;;;;;;5048469;28;20439;-86
2021/06/21 01:25:44;;;;;;;5.27;4.77;;;19.00;99.90;;;;;;5047473;28;20481;-83
2021/06/21 01:28:19;;;;;;;5.57;4.90;;;19.00;99.90;;;;;;5048769;28;20827;-85
2021/06/21 01:30:55;;;;;;;5.10;4.60;;;19.00;99.90;;;;;;5043844;28;20818;-84
2021/06/21 01:33:27;;;;;;;5.37;4.87;;;19.10;99.90;;;;;;5051986;28;20455;-84
2021/06/21 01:35:58;;;;;;;5.83;5.27;;;19.10;99.90;;;;;;5047092;28;20472;-83
2021/06/21 01:38:29;;;;;;;6.50;5.20;;;19.10;99.90;;;;;;5049929;28;20442;-82
2021/06/21 01:40:59;;;;;;;6.57;5.80;;;19.10;99.90;;;;;;5049923;28;20647;-85
2021/06/21 01:43:30;;;;;;;6.97;5.53;;;19.20;99.90;;;;;;5049838;28;20460;-82
2021/06/21 01:46:00;;;;;;;5.30;4.77;;;19.20;99.90;;;;;;5017858;28;20574;-83
2021/06/21 01:48:29;;;;;;;6.63;4.67;;;19.20;99.90;;;;;;5050569;28;20469;-82
2021/06/21 01:50:59;;;;;;;5.60;5.10;;;19.20;99.90;;;;;;5049398;28;20710;-82
2021/06/21 01:53:29;;;;;;;9.57;6.40;;;19.30;99.90;;;;;;5038085;28;20465;-85
2021/06/21 01:55:59;;;;;;;7.63;5.90;;;19.30;99.90;;;;;;5031614;28;21014;-82
2021/06/21 01:58:29;;;;;;;6.23;5.63;;;19.30;99.90;;;;;;5021472;28;20973;-82
2021/06/21 02:00:56;;;;;;;6.00;5.50;;;19.30;99.90;;;;;;5034320;28;20445;-83
2021/06/21 02:03:24;;;;;;;7.90;6.10;;;19.30;99.90;;;;;;5032845;28;20461;-82
2021/06/21 02:05:53;;;;;;;10.83;6.80;;;19.30;99.90;;;;;;5052640;28;20471;-82
2021/06/21 02:08:21;;;;;;;8.00;7.30;;;19.30;99.90;;;;;;5032469;28;20466;-83
2021/06/21 02:10:51;;;;;;;8.33;7.53;;;19.20;99.90;;;;;;5051920;28;20473;-82
2021/06/21 02:13:20;;;;;;;8.17;7.47;;;19.20;99.90;;;;;;5046379;28;20464;-82
2021/06/21 02:15:48;;;;;;;8.10;7.40;;;19.20;99.90;;;;;;5032805;28;20453;-84
2021/06/21 02:18:18;;;;;;;9.37;8.43;;;19.20;99.90;;;;;;5051178;28;20444;-81
2021/06/21 02:20:45;;;;;;;9.50;8.60;;;19.10;99.90;;;;;;5049908;28;20834;-82
2021/06/21 02:23:15;;;;;;;9.50;8.60;;;19.10;99.90;;;;;;5048661;28;20453;-82
2021/06/21 02:25:43;;;;;;;10.00;9.10;;;19.10;99.90;;;;;;5051308;28;20473;-82
2021/06/21 02:28:11;;;;;;;9.27;8.17;;;19.10;99.90;;;;;;5033973;28;20824;-82
2021/06/21 02:30:39;;;;;;;10.73;9.67;;;19.10;99.90;;;;;;5049270;28;20488;-82
2021/06/21 02:33:06;;;;;;;9.40;8.37;;;19.00;99.90;;;;;;5048215;28;20505;-84
2021/06/21 02:35:33;;;;;;;9.77;8.97;;;19.00;99.90;;;;;;5045568;28;20473;-85
2021/06/21 02:38:00;;;;;;;9.27;8.37;;;19.00;99.90;;;;;;5049732;28;20469;-84
2021/06/21 02:40:28;;;;;;;9.90;9.00;;;19.00;99.90;;;;;;5049481;28;20461;-84
2021/06/21 02:42:55;;;;;;;9.57;8.67;;;19.00;99.90;;;;;;5050967;28;20441;-86
2021/06/21 02:45:22;;;;;;;10.70;8.37;;;18.90;99.90;;;;;;5047598;28;20477;-86
2021/06/21 02:47:50;;;;;;;9.10;8.30;;;18.90;99.90;;;;;;5038357;28;20689;-85
2021/06/21 02:50:20;;;;;;;9.40;8.37;;;18.90;99.90;;;;;;5047850;28;20488;-83
2021/06/21 02:53:00;;;;;;;10.93;9.83;;;18.90;99.90;;;;;;5048023;28;21124;-83
2021/06/21 02:55:37;;;;;;;10.63;9.63;;;18.80;99.90;;;;;;5033720;28;20461;-82
2021/06/21 02:58:11;;;;;;;9.60;8.70;;;18.90;99.90;;;;;;5048793;28;20487;-84
2021/06/21 03:00:40;;;;;;;13.63;7.87;;;18.90;99.90;;;;;;5030884;28;20811;-82
2021/06/21 03:03:09;;;;;;;10.17;8.60;;;18.90;99.90;;;;;;5012605;28;20495;-83
2021/06/21 03:05:38;;;;;;;11.90;9.40;;;18.80;99.90;;;;;;5048777;28;20492;-84
2021/06/21 03:08:09;;;;;;;9.90;9.00;;;18.80;99.90;;;;;;5048762;28;20560;-83
2021/06/21 03:10:39;;;;;;;13.93;9.67;;;18.80;99.90;;;;;;5049784;28;20479;-81
2021/06/21 03:13:07;;;;;;;10.63;9.60;;;18.70;99.90;;;;;;5050154;28;20448;-85
2021/06/21 03:15:34;;;;;;;8.97;8.20;;;18.70;99.90;;;;;;5019103;28;21310;-84
2021/06/21 03:18:02;;;;;;;11.40;9.37;;;18.70;99.90;;;;;;5047786;28;21246;-81
2021/06/21 03:20:29;;;;;;;10.77;9.60;;;18.70;99.90;;;;;;5030205;28;21073;-85
2021/06/21 03:22:57;;;;;;;10.23;9.23;;;18.70;99.90;;;;;;5049821;28;20463;-84
2021/06/21 03:25:28;;;;;;;10.93;9.50;;;18.70;99.90;;;;;;5031163;28;20879;-85
2021/06/21 03:27:57;;;;;;;12.30;10.47;;;18.70;99.90;;;;;;5048489;28;20445;-83
2021/06/21 03:30:26;;;;;;;13.93;11.27;;;18.70;99.90;;;;;;5029349;28;21214;-84
2021/06/21 03:32:53;;;;;;;12.20;11.00;;;18.70;99.90;;;;;;5027060;28;20572;-82
2021/06/21 03:35:21;;;;;;;11.13;10.10;;;18.70;99.90;;;;;;5049411;28;20453;-88
2021/06/21 03:37:49;;;;;;;12.30;11.10;;;18.70;99.90;;;;;;5049620;28;20792;-84
2021/06/21 03:40:16;;;;;;;12.47;11.17;;;18.70;99.90;;;;;;5049106;28;20727;-82
2021/06/21 03:42:43;;;;;;;14.20;12.90;;;18.60;99.90;;;;;;5032618;28;20464;-84
2021/06/21 03:45:13;;;;;;;13.57;12.17;;;18.60;99.90;;;;;;5046264;28;20472;-85
2021/06/21 03:47:41;;;;;;;13.70;12.40;;;18.60;99.90;;;;;;5019342;28;21189;-83
2021/06/21 03:50:10;;;;;;;14.43;12.90;;;18.60;99.90;;;;;;5042200;28;20510;-82
2021/06/21 03:52:37;;;;;;;13.00;11.83;;;18.50;99.90;;;;;;5049363;28;20806;-84
2021/06/21 03:55:08;;;;;;;13.40;12.10;;;18.50;99.90;;;;;;5048185;28;20472;-85
2021/06/21 03:57:36;;;;;;;13.83;12.47;;;18.60;99.90;;;;;;5046591;28;20483;-83
2021/06/21 04:00:07;;;;;;;13.40;11.63;;;18.60;99.90;;;;;;5047691;28;20444;-85
2021/06/21 04:02:37;;;;;;;16.47;14.77;;;18.60;99.90;;;;;;5048544;28;20563;-82
2021/06/21 04:05:06;;;;;;;16.10;14.50;;;18.50;99.90;;;;;;5049876;28;20465;-84
2021/06/21 04:07:33;;;;;;;16.10;14.53;;;18.50;99.90;;;;;;5029500;28;20465;-83
2021/06/21 04:09:59;;;;;;;17.93;16.20;;;18.50;99.90;;;;;;5050238;28;20488;-81
2021/06/21 04:12:26;;;;;;;16.77;15.13;;;18.50;99.90;;;;;;5049489;28;20465;-82
2021/06/21 04:14:53;;;;;;;17.57;15.97;;;18.50;99.90;;;;;;5051694;28;20445;-83
2021/06/21 04:17:20;;;;;;;18.90;17.20;;;18.50;99.90;;;;;;5051787;28;20927;-81
2021/06/21 04:19:52;;;;;;;18.70;16.90;;;18.50;99.90;;;;;;5046682;28;20457;-83
2021/06/21 04:22:21;;;;;;;20.23;16.10;;;18.50;99.90;;;;;;5047379;28;20441;-84
2021/06/21 04:24:48;;;;;;;16.97;15.40;;;18.50;99.90;;;;;;5049156;28;20469;-83
2021/06/21 04:27:15;;;;;;;21.73;16.57;;;18.50;99.90;;;;;;5048092;28;20453;-84
2021/06/21 04:29:42;;;;;;;18.70;16.80;;;18.50;99.90;;;;;;5048933;28;20464;-84
2021/06/21 04:32:09;;;;;;;16.97;15.23;;;18.50;99.90;;;;;;5051446;28;20938;-87
2021/06/21 04:34:36;;;;;;;18.60;16.70;;;18.50;99.90;;;;;;5038015;28;20475;-83
2021/06/21 04:37:06;;;;;;;19.83;17.83;;;18.50;99.90;;;;;;5053407;28;20814;-85
2021/06/21 04:39:33;;;;;;;18.20;16.30;;;18.50;99.90;;;;;;5053487;28;20457;-83
2021/06/21 04:42:00;;;;;;;18.80;16.53;;;18.50;99.90;;;;;;5053978;28;20448;-83
2021/06/21 04:44:27;;;;;;;17.73;16.03;;;18.50;99.90;;;;;;5049267;28;20475;-83
2021/06/21 04:46:53;;;;;;;18.97;17.27;;;18.60;99.90;;;;;;5051985;28;20480;-82
2021/06/21 04:49:20;;;;;;;19.10;17.30;;;18.50;99.90;;;;;;5050744;28;20846;-83
2021/06/21 04:51:49;;;;;;;18.37;16.60;;;18.60;99.90;;;;;;5051215;28;20599;-83
2021/06/21 04:54:18;;;;;;;18.03;16.33;;;18.60;99.90;;;;;;5051214;28;20821;-83
2021/06/21 04:56:45;;;;;;;19.10;17.40;;;18.60;99.90;;;;;;5052455;28;20459;-84
2021/06/21 04:59:12;;;;;;;19.17;17.20;;;18.60;99.90;;;;;;5032326;28;20448;-82
2021/06/21 05:01:39;;;;;;;17.73;15.80;;;18.60;99.90;;;;;;5049432;28;20465;-85
2021/06/21 05:04:06;;;;;;;17.80;16.00;;;18.60;99.90;;;;;;5052433;28;20925;-82
2021/06/21 05:06:34;;;;;;;18.57;16.90;;;18.60;99.90;;;;;;5050779;28;20473;-83
2021/06/21 05:09:01;;;;;;;18.80;17.03;;;18.60;99.90;;;;;;5052390;28;20504;-81
2021/06/21 05:11:30;;;;;;;19.67;17.87;;;18.60;99.90;;;;;;5048503;28;20481;-83
2021/06/21 05:13:57;;;;;;;19.80;18.17;;;18.60;99.90;;;;;;5049897;28;20465;-82
2021/06/21 05:16:24;;;;;;;21.40;19.40;;;18.60;99.90;;;;;;5033990;28;20468;-81
2021/06/21 05:18:51;;;;;;;20.67;18.97;;;18.60;99.90;;;;;;5050539;28;20468;-84
2021/06/21 05:21:18;;;;;;;20.43;18.53;;;18.60;99.90;;;;;;5033801;28;20455;-83
2021/06/21 05:23:45;;;;;;;19.70;17.90;;;18.60;99.90;;;;;;5045060;28;20464;-84
2021/06/21 05:26:12;;;;;;;18.50;16.70;;;18.60;99.90;;;;;;5032109;28;20464;-84
2021/06/21 05:28:40;;;;;;;19.57;17.97;;;18.60;99.90;;;;;;5050699;28;20449;-83
2021/06/21 05:31:07;;;;;;;16.77;15.37;;;18.60;99.90;;;;;;5030752;28;20493;-83
2021/06/21 05:33:37;;;;;;;15.27;13.97;;;18.70;99.90;;;;;;5047241;28;20812;-83
2021/06/21 05:36:04;;;;;;;14.97;13.70;;;18.70;99.90;;;;;;5041688;28;20481;-85
2021/06/21 05:38:32;;;;;;;13.73;12.43;;;18.70;99.90;;;;;;5050742;28;20978;-82
2021/06/21 05:40:58;;;;;;;11.87;10.87;;;18.70;99.90;;;;;;5049917;28;20449;-84
2021/06/21 05:43:25;;;;;;;13.57;11.23;;;18.70;99.90;;;;;;5046925;28;20467;-82
2021/06/21 05:45:54;;;;;;;11.07;10.17;;;18.70;99.90;;;;;;5050732;28;20835;-83
2021/06/21 05:48:24;;;;;;;9.43;8.63;;;18.70;99.90;;;;;;5049975;28;20445;-84
2021/06/21 05:50:51;;;;;;;9.30;7.77;;;18.70;99.90;;;;;;5050053;28;20842;-82
2021/06/21 05:53:18;;;;;;;7.63;6.20;;;18.80;99.90;;;;;;5050286;28;20465;-82
2021/06/21 05:55:45;;;;;;;6.47;5.30;;;18.80;99.90;;;;;;5047684;28;20480;-85
2021/06/21 05:58:12;;;;;;;5.03;4.33;;;18.80;99.90;;;;;;5031510;28;20444;-86
2021/06/21 06:00:39;;;;;;;9.73;5.20;;;18.80;99.90;;;;;;5049635;28;20929;-88
2021/06/21 06:03:07;;;;;;;5.70;3.53;;;18.80;99.90;;;;;;5051153;28;20852;-82
2021/06/21 06:05:34;;;;;;;7.47;4.43;;;18.90;99.90;;;;;;5048595;28;20472;-83
2021/06/21 06:08:02;;;;;;;6.90;4.00;;;18.90;99.90;;;;;;5049510;28;20830;-81
2021/06/21 06:10:29;;;;;;;6.50;3.57;;;18.90;99.90;;;;;;5047631;28;20480;-81
2021/06/21 06:12:56;;;;;;;4.87;3.57;;;18.90;99.90;;;;;;5048298;28;20491;-82
2021/06/21 06:15:23;;;;;;;4.73;3.20;;;18.90;99.90;;;;;;5051058;28;20461;-81
2021/06/21 06:17:50;;;;;;;9.13;3.00;;;19.00;99.90;;;;;;5049689;28;20947;-84
2021/06/21 06:20:19;;;;;;;7.23;2.40;;;19.00;99.90;;;;;;5051410;28;20449;-84
2021/06/21 06:22:46;;;;;;;6.50;3.00;;;19.00;99.90;;;;;;5050032;28;20500;-85
2021/06/21 06:25:15;;;;;;;6.07;3.10;;;19.00;99.90;;;;;;5018027;28;20487;-82
2021/06/21 06:27:42;;;;;;;11.40;2.87;;;19.00;99.90;;;;;;5034956;28;20456;-86
2021/06/21 06:30:12;;;;;;;4.13;2.47;;;19.00;99.90;;;;;;5050768;28;20877;-85
2021/06/21 06:32:40;;;;;;;5.87;2.60;;;19.10;99.90;;;;;;5048795;28;20538;-86
2021/06/21 06:35:08;;;;;;;5.30;2.60;;;19.10;99.90;;;;;;5047667;28;21039;-86
2021/06/21 06:37:37;;;;;;;5.53;2.67;;;19.10;99.90;;;;;;5049245;28;20464;-85
2021/06/21 06:40:05;;;;;;;3.80;2.50;;;19.10;99.90;;;;;;5028838;28;20453;-84
2021/06/21 06:42:32;;;;;;;7.17;2.80;;;19.10;99.90;;;;;;5048423;28;20464;-89
2021/06/21 06:44:59;;;;;;;6.63;2.90;;;19.10;99.90;;;;;;5050927;28;20837;-85
2021/06/21 06:47:26;;;;;;;7.50;2.80;;;19.10;99.90;;;;;;5051601;28;20457;-85
2021/06/21 06:49:53;;;;;;;4.40;2.80;;;19.10;99.90;;;;;;5051458;28;20473;-89
2021/06/21 06:52:22;;;;;;;7.40;2.43;;;19.10;99.90;;;;;;5047336;28;20489;-86
2021/06/21 06:57:32;;;;;;;5.37;2.53;;;19.20;99.90;;;;;;5028128;28;20633;-86
2021/06/21 06:59:58;;;;;;;6.77;2.70;;;19.20;99.90;;;;;;5047054;28;20930;-85
2021/06/21 07:02:25;;;;;;;4.80;2.87;;;19.30;99.90;;;;;;5043448;28;21338;-83
2021/06/21 07:04:52;;;;;;;6.73;3.17;;;19.30;99.90;;;;;;5046976;28;20471;-84
2021/06/21 07:07:20;;;;;;;7.23;2.37;;;19.30;99.90;;;;;;5047715;28;20805;-84
2021/06/21 07:09:47;;;;;;;7.90;2.57;;;19.40;99.90;;;;;;5042566;28;21142;-84
2021/06/21 07:12:15;;;;;;;7.50;2.63;;;19.40;99.90;;;;;;5036959;28;20823;-86
2021/06/21 07:14:42;;;;;;;5.03;2.47;;;19.50;99.90;;;;;;5044847;28;20464;-81
2021/06/21 07:17:09;;;;;;;8.17;2.70;;;19.60;99.90;;;;;;5047100;28;20449;-84
2021/06/21 07:19:36;;;;;;;5.17;2.90;;;19.60;99.90;;;;;;5045487;28;20449;-79
2021/06/21 07:22:03;;;;;;;5.83;2.63;;;19.60;99.90;;;;;;5046027;28;20472;-82
2021/06/21 07:24:31;;;;;;;6.23;2.90;;;19.60;99.90;;;;;;5042893;28;20460;-84
2021/06/21 07:26:57;;;;;;;2.60;2.30;;;19.60;99.90;;;;;;5046060;28;20473;-85
2021/06/21 07:29:26;;;;;;;5.00;2.33;;;19.70;99.90;;;;;;5044762;28;20464;-86
2021/06/21 07:31:53;;;;;;;4.57;3.10;;;19.70;99.90;;;;;;5046856;28;20910;-82
2021/06/21 07:34:20;;;;;;;5.93;2.60;;;19.70;99.90;;;;;;5045821;28;20476;-88
2021/06/21 07:36:47;;;;;;;7.13;3.00;;;19.70;99.90;;;;;;5047399;28;20882;-85
2021/06/21 07:39:15;;;;;;;3.13;2.57;;;19.80;99.90;;;;;;5039337;28;21017;-87
2021/06/21 07:41:43;;;;;;;4.07;2.57;;;20.00;99.90;;;;;;5026935;28;20489;-84
2021/06/21 07:44:10;;;;;;;2.83;2.17;;;20.00;99.90;;;;;;5046082;28;20457;-87
2021/06/21 07:46:38;;;;;;;3.13;2.47;;;20.10;99.90;;;;;;5049377;28;20546;-91
2021/06/21 07:49:05;;;;;;;2.93;2.40;;;20.10;99.90;;;;;;5049363;28;20495;-87
2021/06/21 07:51:32;;;;;;;2.70;2.37;;;20.20;99.90;;;;;;5048621;28;20484;-86
2021/06/21 07:53:59;;;;;;;3.53;2.93;;;20.20;99.90;;;;;;5047476;28;20532;-86
2021/06/21 07:56:26;;;;;;;3.03;2.50;;;20.20;99.90;;;;;;5046572;28;20550;-89
2021/06/21 07:58:53;;;;;;;3.50;2.80;;;20.20;99.90;;;;;;5049437;28;20525;-85
2021/06/21 08:01:20;;;;;;;4.40;3.57;;;20.20;99.90;;;;;;5047228;28;20475;-85
2021/06/21 08:03:48;;;;;;;5.60;4.47;;;20.20;99.90;;;;;;5047319;28;20504;-86
2021/06/21 08:06:15;;;;;;;6.27;5.30;;;20.20;99.90;;;;;;5046945;28;20481;-87
2021/06/21 08:08:44;;;;;;;5.80;5.20;;;20.30;99.90;;;;;;5049661;28;20807;-84
2021/06/21 08:11:12;;;;;;;6.67;6.07;;;20.30;99.90;;;;;;5052242;28;20484;-83
2021/06/21 08:13:39;;;;;;;9.10;6.00;;;20.50;99.90;;;;;;5032767;28;20461;-84
2021/06/21 08:16:07;;;;;;;7.40;6.60;;;20.70;99.90;;;;;;5053671;28;20475;-85
2021/06/21 08:18:34;;;;;;;5.97;5.47;;;20.80;99.90;;;;;;5034125;28;20464;-85
2021/06/21 08:21:03;;;;;;;8.30;7.50;;;21.00;99.90;;;;;;5055009;28;20441;-86
2021/06/21 08:23:32;;;;;;;8.40;7.67;;;21.00;99.90;;;;;;5036436;28;20441;-85
2021/06/21 08:25:59;;;;;;;8.87;8.07;;;20.90;99.90;;;;;;5054314;28;20552;-86
2021/06/21 08:28:26;;;;;;;8.00;7.20;;;20.90;99.90;;;;;;5050031;28;20445;-91
2021/06/21 08:30:53;;;;;;;10.80;9.90;;;20.90;99.90;;;;;;5044357;28;20444;-90
2021/06/21 08:33:22;;;;;;;14.10;9.70;;;20.80;99.90;;;;;;5050602;28;20901;-91
2021/06/21 08:35:49;;;;;;;12.50;11.40;;;20.80;99.90;;;;;;5050900;28;20845;-90
2021/06/21 08:38:17;;;;;;;13.10;12.10;;;20.80;99.90;;;;;;5049489;28;20551;-92
2021/06/21 08:40:44;;;;;;;13.80;12.70;;;20.70;99.90;;;;;;5050627;28;20536;-92
2021/06/21 08:43:12;;;;;;;12.63;11.53;;;20.60;99.90;;;;;;5051263;28;20954;-91
2021/06/21 08:45:39;;;;;;;11.50;10.50;;;20.70;99.90;;;;;;5016155;28;20684;-90
2021/06/21 08:48:08;;;;;;;12.63;11.53;;;20.70;99.90;;;;;;5057208;28;20451;-91
2021/06/21 08:50:37;;;;;;;13.50;12.30;;;20.60;99.90;;;;;;5037970;28;20575;-88
2021/06/21 08:53:04;;;;;;;12.30;11.20;;;20.50;99.90;;;;;;5030306;28;20493;-90
2021/06/21 09:22:43;;;;;;;13.03;7.67;;;18.90;99.90;;;;;;4899399;29;20479;-91
2021/06/21 09:25:22;;;;;;;7.63;6.83;;;18.80;99.90;;;;;;4928478;29;20470;-88
2021/06/21 09:27:54;;;;;;;8.10;6.27;;;18.70;99.90;;;;;;4959190;28;20447;-88
2021/06/21 09:30:24;;;;;;;6.70;6.00;;;18.60;99.90;;;;;;4989391;28;20459;-91
2021/06/21 09:32:54;;;;;;;7.53;5.10;;;18.60;99.90;;;;;;4996518;28;20486;-93
2021/06/21 09:35:40;;;;;;;5.50;4.03;;;18.50;99.90;;;;;;4985891;28;20766;-90
2021/06/21 09:38:14;;;;;;;3.90;3.33;;;18.40;99.90;;;;;;5006338;28;20461;-92
2021/06/21 09:40:47;;;;;;;3.60;2.83;;;18.30;99.90;;;;;;5012743;28;20520;-94
2021/06/21 09:43:21;;;;;;;3.90;3.33;;;18.20;99.90;;;;;;5009163;28;20453;-91
2021/06/21 09:46:07;;;;;;;4.60;3.60;;;18.10;99.90;;;;;;5011064;28;20458;-91
2021/06/21 09:48:56;;;;;;;3.57;2.40;;;18.10;99.90;;;;;;4998882;28;20471;-91
2021/06/21 09:51:33;;;;;;;2.70;2.00;;;18.10;99.90;;;;;;4948172;28;20437;-91
2021/06/21 09:54:23;;;;;;;2.43;2.10;;;18.20;99.90;;;;;;4990818;28;20491;-92
2021/06/21 09:56:58;;;;;;;4.50;2.00;;;18.20;99.90;;;;;;4995778;28;20493;-91
2021/06/21 09:59:36;;;;;;;2.10;1.90;;;18.20;99.90;;;;;;4988530;28;20447;-90
2021/06/21 10:05:29;;;;;;;2.70;1.80;;;18.30;99.90;;;;;;4923150;28;20874;-90
2021/06/21 10:07:58;;;;;;;1.70;1.50;;;18.30;99.90;;;;;;4999505;28;20437;-91
2021/06/21 10:10:25;;;;;;;2.90;1.57;;;18.30;99.90;;;;;;4999989;28;20444;-89
2021/06/21 10:12:55;;;;;;;1.93;1.83;;;18.30;99.90;;;;;;4990511;28;20547;-89
2021/06/21 10:15:24;;;;;;;1.40;1.30;;;18.30;99.90;;;;;;4997702;28;20490;-88
2021/06/21 10:17:51;;;;;;;1.17;1.07;;;18.30;99.90;;;;;;5013150;28;20972;-89
2021/06/21 10:20:31;;;;;;;3.00;1.60;;;18.30;99.90;;;;;;5004524;28;20530;-92
2021/06/21 10:23:04;;;;;;;2.50;1.37;;;18.30;99.90;;;;;;5014651;28;20446;-92
2021/06/21 10:26:22;;;;;;;1.60;1.20;;;18.30;99.90;;;;;;5021868;28;20510;-88
2021/06/21 10:28:52;;;;;;;1.80;1.37;;;18.20;99.90;;;;;;4983914;28;20849;-89
2021/06/21 10:35:20;;;;;;;2.20;1.40;;;18.10;99.90;;;;;;4963560;28;20440;-90
2021/06/21 10:38:09;;;;;;;1.40;1.10;;;18.00;99.90;;;;;;5009405;28;20458;-88
2021/06/21 10:43:53;;;;;;;1.43;0.90;;;17.90;99.90;;;;;;4950697;28;20464;-86
2021/06/21 10:46:27;;;;;;;1.20;1.03;;;17.90;99.90;;;;;;5012701;28;20466;-90
2021/06/21 10:53:05;;;;;;;3.87;1.20;;;17.80;99.90;;;;;;4931146;28;20954;-92
2021/06/21 10:59:23;;;;;;;2.73;2.20;;;17.90;99.90;;;;;;4843360;29;20458;-92
2021/06/21 11:01:53;;;;;;;2.03;1.87;;;17.90;99.90;;;;;;4844540;29;20573;-89
2021/06/21 11:04:45;;;;;;;2.07;1.87;;;17.90;99.90;;;;;;4889288;29;20504;-86
2021/06/21 11:07:13;;;;;;;1.73;1.63;;;17.80;99.90;;;;;;4939478;28;20819;-89
2021/06/21 11:09:42;;;;;;;1.47;1.37;;;17.90;99.90;;;;;;4973827;28;20531;-90
2021/06/21 11:12:34;;;;;;;1.60;1.40;;;17.80;99.90;;;;;;4975411;28;20481;-89
2021/06/21 11:15:17;;;;;;;2.40;1.43;;;17.80;99.90;;;;;;4975789;28;20491;-91
2021/06/21 11:18:01;;;;;;;1.70;1.30;;;17.70;99.90;;;;;;4994380;28;20475;-90
2021/06/21 11:20:34;;;;;;;1.40;1.30;;;17.70;99.90;;;;;;4998276;28;20451;-90
2021/06/21 11:23:04;;;;;;;1.50;1.40;;;17.80;99.90;;;;;;5027987;28;20919;-90
2021/06/21 11:25:33;;;;;;;2.03;1.30;;;17.80;99.90;;;;;;5022898;28;21069;-92
2021/06/21 11:28:01;;;;;;;1.67;1.50;;;17.80;99.90;;;;;;5017408;28;20856;-91
2021/06/21 11:30:33;;;;;;;2.00;1.40;;;17.80;99.90;;;;;;5023951;28;20466;-92
2021/06/21 11:33:49;;;;;;;1.50;1.40;;;17.80;99.90;;;;;;5026745;28;20496;-93
2021/06/21 11:36:36;;;;;;;1.73;1.40;;;17.80;99.90;;;;;;4996512;28;20573;-86
2021/06/21 11:39:19;;;;;;;1.50;1.40;;;17.90;99.90;;;;;;5013287;28;20465;-92
2021/06/21 11:41:54;;;;;;;3.20;1.70;;;17.90;99.90;;;;;;5014468;28;20454;-90
2021/06/21 11:44:51;;;;;;;1.77;1.37;;;18.00;99.90;;;;;;5016978;28;20524;-92
2021/06/21 11:47:19;;;;;;;2.80;1.77;;;18.00;99.90;;;;;;5006457;28;20472;-91
2021/06/21 11:49:50;;;;;;;1.30;1.20;;;18.10;99.90;;;;;;5024462;28;20544;-88
2021/06/21 11:52:18;;;;;;;1.70;1.60;;;18.10;99.90;;;;;;5024147;28;20478;-89
2021/06/21 11:54:46;;;;;;;1.77;1.37;;;18.20;99.90;;;;;;5018837;28;20453;-91
2021/06/21 11:57:14;;;;;;;1.43;1.33;;;18.20;99.90;;;;;;5004671;28;20511;-92
2021/06/21 11:59:43;;;;;;;1.67;1.30;;;18.20;99.90;;;;;;5017872;28;20952;-93
2021/06/21 12:02:12;;;;;;;1.23;1.13;;;18.20;99.90;;;;;;5017395;28;20471;-93
2021/06/21 12:04:40;;;;;;;1.30;1.20;;;18.20;99.90;;;;;;5020299;28;20458;-93
2021/06/21 12:07:08;;;;;;;1.30;1.20;;;18.20;99.90;;;;;;5005318;28;20521;-92
2021/06/21 12:09:40;;;;;;;2.53;1.20;;;18.10;99.90;;;;;;5003779;28;20459;-93
2021/06/21 12:12:08;;;;;;;1.80;1.40;;;18.10;99.90;;;;;;4998698;28;20457;-91
2021/06/21 12:14:35;;;;;;;3.00;1.30;;;18.10;99.90;;;;;;5002262;28;20481;-93
2021/06/21 12:17:05;;;;;;;1.87;1.57;;;18.10;99.90;;;;;;5033019;28;20489;-90
2021/06/21 12:19:32;;;;;;;1.63;1.30;;;18.10;99.90;;;;;;5020467;28;20446;-93
2021/06/21 12:22:01;;;;;;;1.50;1.10;;;18.10;99.90;;;;;;5027399;28;20466;-91
2021/06/21 12:24:31;;;;;;;2.80;1.20;;;18.00;99.90;;;;;;5031975;28;20549;-87
2021/06/21 12:26:59;;;;;;;1.30;1.20;;;18.00;99.90;;;;;;5022882;28;20496;-88
2021/06/21 12:29:29;;;;;;;1.63;1.17;;;18.00;99.90;;;;;;5013606;28;20449;-89
2021/06/21 12:32:00;;;;;;;2.40;1.20;;;17.90;99.90;;;;;;5008133;28;20488;-92
2021/06/21 12:34:42;;;;;;;1.37;1.27;;;17.90;99.90;;;;;;5001340;28;20471;-90
2021/06/21 12:37:15;;;;;;;3.47;1.37;;;17.80;99.90;;;;;;4997406;28;20431;-89
2021/06/21 12:39:43;;;;;;;2.23;1.40;;;17.80;99.90;;;;;;5021341;28;20449;-89
2021/06/21 12:42:12;;;;;;;1.97;1.63;;;17.70;99.90;;;;;;5009431;28;20549;-88
2021/06/21 12:44:39;;;;;;;1.30;1.20;;;17.70;99.90;;;;;;5012861;28;20539;-89
2021/06/21 12:47:22;;;;;;;1.40;1.30;;;17.60;99.90;;;;;;5023710;28;20485;-88
2021/06/21 12:49:52;;;;;;;1.50;1.40;;;17.50;99.90;;;;;;5009587;28;20498;-90
2021/06/21 12:52:20;;;;;;;1.83;1.73;;;17.50;99.90;;;;;;5011597;28;20513;-92
2021/06/21 12:54:56;;;;;;;3.00;2.47;;;17.50;99.90;;;;;;5016088;28;20507;-89
2021/06/21 12:57:23;;;;;;;2.40;2.20;;;17.50;99.90;;;;;;5022831;28;20822;-89
2021/06/21 12:59:51;;;;;;;2.00;1.80;;;17.40;99.90;;;;;;5027318;28;20808;-85
2021/06/21 13:02:21;;;;;;;3.90;2.27;;;17.40;99.90;;;;;;5002070;28;20451;-86
2021/06/21 13:05:05;;;;;;;2.50;2.30;;;17.40;99.90;;;;;;5024397;28;20557;-87
2021/06/21 13:07:32;;;;;;;2.77;2.30;;;17.40;99.90;;;;;;5014411;28;20816;-87
2021/06/21 13:10:00;;;;;;;2.47;2.30;;;17.40;99.90;;;;;;5018712;28;20450;-89
2021/06/21 13:12:29;;;;;;;2.43;2.23;;;17.40;99.90;;;;;;5018449;28;20435;-90
2021/06/21 13:15:07;;;;;;;3.07;2.87;;;17.40;99.90;;;;;;5009319;28;20490;-88
2021/06/21 13:17:35;;;;;;;3.90;3.60;;;17.40;99.90;;;;;;5010285;28;20443;-90
2021/06/21 13:20:09;;;;;;;4.33;3.93;;;17.40;99.90;;;;;;5025171;28;20462;-90
2021/06/21 13:22:38;;;;;;;4.33;4.03;;;17.30;99.90;;;;;;5021500;28;20470;-91
2021/06/21 13:25:20;;;;;;;4.90;4.60;;;17.30;99.90;;;;;;5017097;28;20479;-90
2021/06/21 13:28:03;;;;;;;5.07;4.60;;;17.30;99.90;;;;;;5012143;28;20451;-88
2021/06/21 13:30:33;;;;;;;4.60;4.30;;;17.30;99.90;;;;;;5003951;28;20545;-86
2021/06/21 13:33:03;;;;;;;5.83;4.90;;;17.30;99.90;;;;;;5007545;28;20475;-83
2021/06/21 13:35:30;;;;;;;4.93;4.53;;;17.20;99.90;;;;;;5022822;28;20478;-83
2021/06/21 13:37:57;;;;;;;6.07;5.57;;;17.30;99.90;;;;;;5025311;28;20469;-84
2021/06/21 13:40:28;;;;;;;7.70;7.00;;;17.20;99.90;;;;;;5020292;28;20466;-83
2021/06/21 13:42:56;;;;;;;9.13;8.43;;;17.20;99.90;;;;;;5030773;28;20470;-85
2021/06/21 13:45:26;;;;;;;9.47;8.87;;;17.20;99.90;;;;;;5010025;28;20485;-84